Terminal Aerodrome Forecast
Issued by NWS

Home | Current Version | Previous Version | Text Only | Print | Product List | Glossary On
Versions: 1 2 3 4 5 6 7 8 9 10 11 12 13 14
227
FTUS44 KLZK 111727
TAFBPK
TAF
KBPK 111727Z 1118/1218 06007KT P6SM SKC
     FM120000 14004KT P6SM BKN150
     FM121600 31010G15KT P6SM SCT025=

USA.gov is the U.S. government's official web portal to all federal, state and local government web resources and services.